Time;durP1;ratioP1;P1;durP2;ratioP2;P2;SDS_P1;SDS_P2;PMS_P1;PMS_P2;Temp;Humidity;BMP_temperature;BMP_pressure;BME280_temperature;BME280_humidity;BME280_pressure;Samples;Min_cycle;Max_cycle;Signal;HPM_P1;HPM_P2
2024/01/15 00:02:26;;;;;;;11.60;8.70;;;2.40;99.90;;;;;;5241222;28;20229;-52
2024/01/15 00:04:57;;;;;;;11.27;8.30;;;2.40;99.90;;;;;;5236162;28;20197;-51
2024/01/15 00:07:28;;;;;;;12.83;9.07;;;2.50;99.90;;;;;;5244297;28;20581;-50
2024/01/15 00:09:58;;;;;;;14.90;9.07;;;2.40;99.90;;;;;;5238456;28;20743;-49
2024/01/15 00:12:29;;;;;;;11.60;8.93;;;2.40;99.90;;;;;;5242328;28;20178;-51
2024/01/15 00:14:59;;;;;;;12.90;8.40;;;2.40;99.90;;;;;;5241430;28;20217;-48
2024/01/15 00:17:30;;;;;;;12.10;9.00;;;2.40;99.90;;;;;;5235592;28;20783;-48
2024/01/15 00:20:01;;;;;;;13.33;8.90;;;2.40;99.90;;;;;;5246237;28;20567;-52
2024/01/15 00:22:31;;;;;;;10.80;8.33;;;2.40;99.90;;;;;;5242676;28;20190;-52
2024/01/15 00:25:03;;;;;;;14.87;8.30;;;2.40;99.90;;;;;;5243352;28;20187;-52
2024/01/15 00:27:33;;;;;;;11.53;9.10;;;2.50;99.90;;;;;;5237745;28;20449;-49
2024/01/15 00:30:05;;;;;;;12.17;8.73;;;2.50;99.90;;;;;;5240619;28;20488;-50
2024/01/15 00:32:35;;;;;;;10.83;8.23;;;2.40;99.90;;;;;;5243506;28;20194;-50
2024/01/15 00:35:06;;;;;;;14.27;9.40;;;2.50;99.90;;;;;;5235707;28;20499;-52
2024/01/15 00:37:37;;;;;;;12.83;7.87;;;2.40;99.90;;;;;;5237432;28;20253;-49
2024/01/15 00:40:08;;;;;;;13.30;8.93;;;2.40;99.90;;;;;;5241374;28;20198;-51
2024/01/15 00:42:38;;;;;;;20.93;9.00;;;2.30;99.90;;;;;;5234846;28;20178;-51
2024/01/15 00:45:09;;;;;;;13.83;9.07;;;2.30;99.90;;;;;;5241247;28;20416;-49
2024/01/15 00:47:40;;;;;;;13.10;9.30;;;2.30;99.90;;;;;;5241874;28;20193;-51
2024/01/15 00:50:11;;;;;;;14.63;9.00;;;2.30;99.90;;;;;;5244256;28;20594;-50
2024/01/15 00:52:41;;;;;;;17.40;9.43;;;2.30;99.90;;;;;;5238231;28;20179;-52
2024/01/15 00:55:12;;;;;;;16.37;9.07;;;2.20;99.90;;;;;;5241315;28;20240;-50
2024/01/15 00:57:42;;;;;;;11.87;7.87;;;2.30;99.90;;;;;;5239731;28;20202;-50
2024/01/15 01:00:14;;;;;;;19.23;9.10;;;2.20;99.90;;;;;;5227688;28;20232;-50
2024/01/15 01:02:44;;;;;;;11.23;8.13;;;2.30;99.90;;;;;;5235360;28;20234;-49
2024/01/15 01:05:15;;;;;;;15.10;9.80;;;2.20;99.90;;;;;;5243645;28;20523;-51
2024/01/15 01:07:45;;;;;;;17.47;7.83;;;2.10;99.90;;;;;;5240242;28;20186;-51
2024/01/15 01:10:16;;;;;;;13.57;8.17;;;2.30;99.90;;;;;;5235180;28;20198;-51
2024/01/15 01:12:47;;;;;;;13.53;8.80;;;2.20;99.90;;;;;;5241220;28;20190;-51
2024/01/15 01:15:18;;;;;;;10.93;8.20;;;2.10;99.90;;;;;;5243266;28;20440;-51
2024/01/15 01:17:48;;;;;;;12.77;8.90;;;2.00;99.90;;;;;;5240811;28;20257;-49
2024/01/15 01:20:19;;;;;;;14.77;9.60;;;2.00;99.90;;;;;;5244821;28;20574;-49
2024/01/15 01:22:49;;;;;;;13.17;8.63;;;1.90;99.90;;;;;;5239717;28;20210;-53
2024/01/15 01:25:20;;;;;;;14.30;10.10;;;1.80;99.90;;;;;;5242275;28;20596;-51
2024/01/15 01:27:51;;;;;;;19.40;9.03;;;1.80;99.90;;;;;;5243125;28;20206;-51
2024/01/15 01:30:21;;;;;;;14.70;9.40;;;1.80;99.90;;;;;;5245817;28;20244;-52
2024/01/15 01:32:52;;;;;;;14.07;9.03;;;1.80;99.90;;;;;;5239290;28;20205;-53
2024/01/15 01:35:23;;;;;;;14.00;9.00;;;1.70;99.90;;;;;;5239859;28;20186;-49
2024/01/15 01:37:53;;;;;;;19.47;11.53;;;1.70;99.90;;;;;;5238037;28;20214;-51
2024/01/15 01:40:24;;;;;;;13.80;9.57;;;1.70;99.90;;;;;;5239483;28;20729;-52
2024/01/15 01:42:55;;;;;;;16.10;9.30;;;1.70;99.90;;;;;;5242274;28;20273;-50
2024/01/15 01:45:25;;;;;;;19.87;10.03;;;1.70;99.90;;;;;;5241413;28;20178;-51
2024/01/15 01:47:56;;;;;;;14.80;9.33;;;1.70;99.90;;;;;;5237308;28;23745;-51
2024/01/15 01:50:29;;;;;;;16.07;9.63;;;1.70;99.90;;;;;;5239532;28;20198;-52
2024/01/15 01:53:01;;;;;;;21.30;9.33;;;1.70;99.90;;;;;;5241001;28;20957;-53
2024/01/15 01:55:33;;;;;;;12.27;9.40;;;1.60;99.90;;;;;;5243995;28;20451;-51
2024/01/15 01:58:04;;;;;;;10.93;7.13;;;1.60;99.90;;;;;;5239580;28;20461;-51
2024/01/15 02:00:36;;;;;;;13.37;8.60;;;1.60;99.90;;;;;;5239310;28;20474;-51
2024/01/15 02:03:07;;;;;;;16.50;10.27;;;1.50;99.90;;;;;;5240861;28;20514;-51
2024/01/15 02:05:40;;;;;;;13.70;8.90;;;1.60;99.90;;;;;;5226111;28;20578;-51
2024/01/15 02:08:10;;;;;;;14.37;8.43;;;1.60;99.90;;;;;;5243893;28;20553;-52
2024/01/15 02:10:41;;;;;;;18.40;10.20;;;1.50;99.90;;;;;;5239375;28;20424;-51
2024/01/15 02:13:11;;;;;;;17.40;8.97;;;1.60;99.90;;;;;;5237521;28;20186;-51
2024/01/15 02:15:42;;;;;;;18.73;10.20;;;1.50;99.90;;;;;;5241858;28;20654;-50
2024/01/15 02:18:13;;;;;;;16.37;8.83;;;1.40;99.90;;;;;;5239980;28;20243;-51
2024/01/15 02:20:44;;;;;;;15.93;8.40;;;1.50;99.90;;;;;;5243465;28;20181;-51
2024/01/15 02:23:15;;;;;;;15.37;9.20;;;1.50;99.90;;;;;;5237768;28;20171;-51
2024/01/15 02:25:47;;;;;;;18.43;9.37;;;1.40;99.90;;;;;;5233767;28;20179;-51
2024/01/15 02:28:17;;;;;;;20.27;9.30;;;1.50;99.90;;;;;;5237560;28;20437;-51
2024/01/15 02:30:48;;;;;;;12.87;8.10;;;1.40;99.90;;;;;;5239937;28;20485;-50
2024/01/15 02:33:19;;;;;;;14.87;8.13;;;1.40;99.90;;;;;;5240958;28;20269;-52
2024/01/15 02:35:52;;;;;;;9.97;7.17;;;1.40;99.90;;;;;;5240552;28;20189;-50
2024/01/15 02:38:23;;;;;;;11.20;6.70;;;1.50;99.90;;;;;;5237380;28;20209;-50
2024/01/15 02:40:53;;;;;;;10.27;7.17;;;1.50;99.90;;;;;;5236660;28;20783;-50
2024/01/15 02:43:24;;;;;;;7.43;5.70;;;1.40;99.90;;;;;;5237192;28;20179;-50
2024/01/15 02:45:54;;;;;;;10.37;7.30;;;1.40;99.90;;;;;;5237449;28;20646;-51
2024/01/15 02:48:25;;;;;;;11.50;6.03;;;1.40;99.90;;;;;;5239364;28;20206;-49
2024/01/15 02:50:56;;;;;;;13.57;8.23;;;1.40;99.90;;;;;;5238242;28;20178;-51
2024/01/15 02:53:26;;;;;;;10.90;6.30;;;1.40;99.90;;;;;;5239583;28;20179;-51
2024/01/15 02:55:57;;;;;;;20.03;7.57;;;1.40;99.90;;;;;;5238717;28;20242;-50
2024/01/15 02:58:27;;;;;;;8.13;5.47;;;1.40;99.90;;;;;;5235572;28;20245;-50
2024/01/15 03:00:58;;;;;;;11.03;5.77;;;1.40;99.90;;;;;;5237623;28;20183;-52
2024/01/15 03:03:29;;;;;;;12.30;6.13;;;1.40;99.90;;;;;;5242109;28;20193;-49
2024/01/15 03:06:01;;;;;;;7.60;5.97;;;1.40;99.90;;;;;;5241375;28;20643;-49
2024/01/15 03:08:31;;;;;;;10.77;5.30;;;1.50;99.90;;;;;;5238638;28;20203;-50
2024/01/15 03:11:02;;;;;;;7.33;6.40;;;1.60;99.90;;;;;;5245593;28;22044;-51
2024/01/15 03:13:36;;;;;;;14.80;7.60;;;1.50;99.90;;;;;;5239110;28;20247;-51
2024/01/15 03:16:06;;;;;;;8.70;5.67;;;1.50;99.90;;;;;;5242810;28;20236;-49
2024/01/15 03:18:37;;;;;;;7.10;6.33;;;1.60;99.90;;;;;;5242347;28;20464;-50
2024/01/15 03:21:08;;;;;;;11.83;5.53;;;1.60;99.90;;;;;;5243376;28;20206;-49
2024/01/15 03:23:38;;;;;;;10.63;6.20;;;1.60;99.90;;;;;;5239547;28;20630;-50
2024/01/15 03:26:09;;;;;;;7.57;5.30;;;1.60;99.90;;;;;;5242906;28;20933;-50
2024/01/15 03:28:39;;;;;;;17.30;5.73;;;1.70;99.90;;;;;;5243024;28;20219;-49
2024/01/15 03:31:10;;;;;;;8.90;5.73;;;1.60;99.90;;;;;;5244599;28;20643;-50
2024/01/15 03:33:40;;;;;;;8.03;5.43;;;1.70;99.90;;;;;;5247336;28;20269;-51
2024/01/15 03:36:11;;;;;;;6.60;5.67;;;1.70;99.90;;;;;;5239457;28;20182;-50
2024/01/15 03:38:42;;;;;;;12.93;6.50;;;1.80;99.90;;;;;;5245044;28;20229;-50
2024/01/15 03:41:12;;;;;;;8.50;6.17;;;1.80;99.90;;;;;;5239349;28;20655;-49
2024/01/15 03:43:43;;;;;;;11.40;5.70;;;1.80;99.90;;;;;;5236485;28;20682;-50
2024/01/15 03:46:14;;;;;;;8.23;4.80;;;1.70;99.90;;;;;;5243678;28;21071;-50
2024/01/15 03:48:44;;;;;;;11.47;6.73;;;1.80;99.90;;;;;;5242602;28;20206;-51
2024/01/15 03:51:17;;;;;;;7.03;4.37;;;1.70;99.90;;;;;;5247326;28;20190;-50
2024/01/15 03:53:48;;;;;;;6.70;4.80;;;1.70;99.90;;;;;;5226212;28;20543;-49
2024/01/15 03:56:18;;;;;;;13.13;5.03;;;1.70;99.90;;;;;;5243952;28;20447;-50
2024/01/15 03:58:49;;;;;;;12.40;6.20;;;1.70;99.90;;;;;;5240077;28;20218;-50
2024/01/15 04:01:20;;;;;;;12.40;4.90;;;1.80;99.90;;;;;;5242063;28;21257;-49
2024/01/15 04:03:50;;;;;;;11.27;5.10;;;1.80;99.90;;;;;;5248817;28;20182;-48
2024/01/15 04:06:21;;;;;;;8.70;5.27;;;1.90;99.90;;;;;;5241693;28;20213;-49
2024/01/15 04:08:51;;;;;;;9.60;5.03;;;1.80;99.90;;;;;;5240974;28;20216;-49
2024/01/15 04:11:22;;;;;;;7.60;4.80;;;1.90;99.90;;;;;;5240967;28;20213;-50
2024/01/15 04:13:53;;;;;;;10.30;4.80;;;1.80;99.90;;;;;;5241647;28;20182;-50
2024/01/15 04:16:23;;;;;;;9.23;5.57;;;1.80;99.90;;;;;;5243671;28;20609;-48
2024/01/15 04:18:54;;;;;;;15.47;4.80;;;1.80;99.90;;;;;;5244888;28;20213;-51
2024/01/15 04:21:25;;;;;;;14.40;6.10;;;1.90;99.90;;;;;;5227018;28;20187;-49
2024/01/15 04:23:55;;;;;;;7.17;4.90;;;1.90;99.90;;;;;;5243574;28;20183;-50
2024/01/15 04:26:26;;;;;;;7.77;4.43;;;1.90;99.90;;;;;;5239731;28;20711;-50
2024/01/15 04:28:57;;;;;;;5.23;4.67;;;1.80;99.90;;;;;;5242884;28;20221;-52
2024/01/15 04:31:28;;;;;;;7.83;4.40;;;1.90;99.90;;;;;;5239257;28;20194;-49
2024/01/15 04:33:58;;;;;;;6.00;4.73;;;2.00;99.90;;;;;;5242299;28;20917;-50
2024/01/15 04:36:29;;;;;;;6.50;3.73;;;2.00;99.90;;;;;;5241166;28;20665;-50
2024/01/15 04:38:59;;;;;;;7.97;4.53;;;2.00;99.90;;;;;;5239800;28;20217;-50
2024/01/15 04:41:30;;;;;;;12.37;5.03;;;2.10;99.90;;;;;;5240928;28;20179;-49
2024/01/15 04:44:01;;;;;;;13.13;4.57;;;2.00;99.90;;;;;;5240226;28;20174;-50
2024/01/15 04:46:31;;;;;;;7.47;4.60;;;2.00;99.90;;;;;;5240462;28;20309;-51
2024/01/15 04:49:02;;;;;;;5.50;3.53;;;2.00;99.90;;;;;;5243643;28;20217;-50
2024/01/15 04:51:34;;;;;;;6.43;3.50;;;2.00;99.90;;;;;;5243246;28;20194;-49
2024/01/15 04:54:04;;;;;;;10.70;4.13;;;2.00;99.90;;;;;;5245045;28;20303;-50
2024/01/15 04:56:35;;;;;;;8.90;3.63;;;2.00;99.90;;;;;;5241656;28;21691;-49
2024/01/15 04:59:06;;;;;;;6.47;3.47;;;2.00;99.90;;;;;;5241439;28;20768;-48
2024/01/15 05:01:36;;;;;;;7.57;3.20;;;2.00;99.90;;;;;;5242843;28;20170;-50
2024/01/15 05:04:07;;;;;;;6.73;3.10;;;2.00;99.90;;;;;;5244799;28;20644;-49
2024/01/15 05:06:37;;;;;;;6.33;2.53;;;2.00;99.90;;;;;;5242194;28;20198;-49
2024/01/15 05:09:08;;;;;;;8.37;3.90;;;2.00;99.90;;;;;;5237965;28;20250;-50
2024/01/15 05:11:39;;;;;;;7.50;3.03;;;2.00;99.90;;;;;;5243048;28;20198;-50
2024/01/15 05:14:10;;;;;;;5.87;2.90;;;2.10;99.90;;;;;;5236571;28;20186;-48
2024/01/15 05:16:47;;;;;;;3.03;2.60;;;2.00;99.90;;;;;;5224299;28;20999;-49
2024/01/15 05:19:18;;;;;;;11.57;2.43;;;2.10;99.90;;;;;;5237525;28;20606;-48
2024/01/15 05:21:49;;;;;;;3.17;2.87;;;2.10;99.90;;;;;;5243301;28;20417;-50
2024/01/15 05:24:19;;;;;;;6.57;2.47;;;2.20;99.90;;;;;;5242232;28;20714;-50
2024/01/15 05:26:50;;;;;;;6.20;2.30;;;2.10;99.90;;;;;;5236885;28;20179;-48
2024/01/15 05:29:21;;;;;;;3.30;2.67;;;2.20;99.90;;;;;;5242375;28;20249;-49
2024/01/15 05:31:51;;;;;;;8.20;2.80;;;2.30;99.90;;;;;;5239519;28;20178;-48
2024/01/15 05:34:22;;;;;;;6.50;3.03;;;2.20;99.90;;;;;;5239379;28;20214;-49
2024/01/15 05:36:52;;;;;;;3.83;2.07;;;2.30;99.90;;;;;;5244198;28;20174;-48
2024/01/15 05:39:23;;;;;;;6.30;2.87;;;2.10;99.90;;;;;;5239827;28;20221;-51
2024/01/15 05:41:54;;;;;;;12.27;2.90;;;2.10;99.90;;;;;;5236907;28;20227;-48
2024/01/15 05:44:24;;;;;;;3.60;2.20;;;2.10;99.90;;;;;;5242403;28;20179;-50
2024/01/15 05:46:55;;;;;;;2.20;2.10;;;2.10;99.90;;;;;;5236826;28;20508;-49
2024/01/15 05:49:25;;;;;;;4.27;2.17;;;2.10;99.90;;;;;;5241560;28;20194;-48
2024/01/15 05:51:56;;;;;;;2.40;2.00;;;2.10;99.90;;;;;;5242192;28;20182;-50
2024/01/15 05:54:27;;;;;;;4.10;1.90;;;2.30;99.90;;;;;;5242298;28;20206;-50
2024/01/15 05:56:57;;;;;;;9.53;2.33;;;2.30;99.90;;;;;;5237931;28;20207;-49
2024/01/15 05:59:31;;;;;;;4.23;2.13;;;2.30;99.90;;;;;;5238977;28;20612;-49
2024/01/15 06:02:02;;;;;;;11.00;2.30;;;2.30;99.90;;;;;;5240017;28;20223;-50
2024/01/15 06:04:32;;;;;;;3.03;1.80;;;2.30;99.90;;;;;;5237550;28;20432;-50
2024/01/15 06:07:03;;;;;;;4.57;2.20;;;2.30;99.90;;;;;;5242279;28;20438;-50
2024/01/15 06:09:34;;;;;;;7.10;2.20;;;2.30;99.90;;;;;;5233281;28;20208;-49
2024/01/15 06:12:06;;;;;;;6.63;1.83;;;2.30;99.90;;;;;;5237880;28;20185;-49
2024/01/15 06:14:37;;;;;;;6.53;1.53;;;2.40;99.90;;;;;;5238784;28;20190;-49
2024/01/15 06:17:08;;;;;;;10.10;2.50;;;2.30;99.90;;;;;;5235544;28;20799;-50
2024/01/15 06:19:39;;;;;;;5.00;1.70;;;2.20;99.90;;;;;;5239209;28;20220;-49
2024/01/15 06:22:09;;;;;;;1.93;1.30;;;2.20;99.90;;;;;;5240276;28;20422;-50
2024/01/15 06:24:41;;;;;;;4.20;1.77;;;2.10;99.90;;;;;;5238449;28;20179;-49
2024/01/15 06:27:12;;;;;;;4.90;1.47;;;2.20;99.90;;;;;;5238124;28;20552;-49
2024/01/15 06:29:48;;;;;;;5.13;1.63;;;2.20;99.90;;;;;;5234608;28;20517;-49
2024/01/15 06:32:19;;;;;;;6.70;1.77;;;2.30;99.90;;;;;;5235595;28;20221;-50
2024/01/15 06:34:49;;;;;;;11.13;1.93;;;2.30;99.90;;;;;;5233360;28;20854;-49
2024/01/15 06:37:20;;;;;;;8.87;1.80;;;2.30;99.90;;;;;;5232129;28;20233;-49
2024/01/15 06:39:51;;;;;;;8.50;2.40;;;2.30;99.90;;;;;;5237476;28;20213;-49
2024/01/15 06:42:21;;;;;;;2.57;1.60;;;2.40;99.90;;;;;;5235947;28;20183;-49
2024/01/15 06:44:52;;;;;;;1.33;1.00;;;2.30;99.90;;;;;;5235813;28;20178;-50
2024/01/15 06:47:23;;;;;;;8.47;2.60;;;2.30;99.90;;;;;;5238564;28;20232;-50
2024/01/15 06:49:53;;;;;;;11.73;2.60;;;2.30;99.90;;;;;;5233404;28;20202;-50
2024/01/15 06:52:24;;;;;;;4.20;1.70;;;2.40;99.90;;;;;;5239697;28;20186;-49
2024/01/15 06:54:55;;;;;;;1.90;1.63;;;2.30;99.90;;;;;;5235636;28;20178;-50
2024/01/15 06:57:25;;;;;;;13.30;1.70;;;2.20;99.90;;;;;;5236375;28;20187;-49
2024/01/15 06:59:56;;;;;;;3.03;1.30;;;2.30;99.90;;;;;;5235011;28;20207;-48
2024/01/15 07:02:26;;;;;;;9.07;2.00;;;2.20;99.90;;;;;;5236887;28;20174;-49
2024/01/15 07:04:57;;;;;;;3.50;1.70;;;2.30;99.90;;;;;;5236397;28;20178;-50
2024/01/15 07:07:29;;;;;;;6.50;1.83;;;2.20;99.90;;;;;;5236241;28;20190;-49
2024/01/15 07:10:00;;;;;;;9.20;2.20;;;2.30;99.90;;;;;;5234357;28;20206;-49
2024/01/15 07:12:30;;;;;;;5.83;2.00;;;2.30;99.90;;;;;;5234727;28;20831;-48
2024/01/15 07:15:02;;;;;;;3.80;1.67;;;2.30;99.90;;;;;;5234532;28;20189;-49
2024/01/15 07:17:32;;;;;;;10.10;1.53;;;2.40;99.90;;;;;;5233979;28;20190;-49
2024/01/15 07:20:03;;;;;;;8.37;2.17;;;2.40;99.90;;;;;;5242336;28;20478;-50
2024/01/15 07:22:36;;;;;;;3.27;1.17;;;2.30;99.90;;;;;;5237104;28;20520;-51
2024/01/15 07:25:07;;;;;;;11.27;2.10;;;2.30;99.90;;;;;;5244402;28;20420;-51
2024/01/15 07:27:37;;;;;;;9.90;1.53;;;2.30;99.90;;;;;;5231753;28;20494;-50
2024/01/15 07:30:09;;;;;;;15.53;2.10;;;2.30;99.90;;;;;;5236028;28;20289;-49
2024/01/15 07:32:40;;;;;;;8.87;1.73;;;2.20;99.90;;;;;;5235547;28;20206;-49
2024/01/15 07:35:11;;;;;;;15.70;2.00;;;2.30;99.90;;;;;;5237521;28;20435;-49
2024/01/15 07:37:42;;;;;;;6.40;1.80;;;2.40;99.90;;;;;;5240609;28;20516;-49
2024/01/15 07:40:12;;;;;;;7.47;1.97;;;2.40;99.90;;;;;;5238288;28;20301;-49
2024/01/15 07:42:43;;;;;;;7.87;1.73;;;2.40;99.90;;;;;;5238977;28;20955;-49
2024/01/15 07:45:13;;;;;;;4.67;1.17;;;2.50;99.90;;;;;;5232796;28;20178;-50
2024/01/15 07:47:44;;;;;;;10.83;2.40;;;2.60;99.90;;;;;;5235499;28;20179;-49
2024/01/15 07:50:15;;;;;;;15.43;2.40;;;2.60;99.90;;;;;;5232678;28;20198;-49
2024/01/15 07:52:45;;;;;;;11.20;2.00;;;2.60;99.90;;;;;;5242865;28;20216;-49
2024/01/15 07:55:16;;;;;;;12.57;3.50;;;2.60;99.90;;;;;;5239537;28;20556;-49
2024/01/15 07:57:46;;;;;;;13.00;1.83;;;2.60;99.90;;;;;;5240990;28;20186;-50
2024/01/15 08:00:17;;;;;;;5.13;1.60;;;2.60;99.90;;;;;;5232201;28;20191;-48
2024/01/15 08:02:48;;;;;;;8.53;2.20;;;2.50;99.90;;;;;;5243466;28;20236;-51
2024/01/15 08:05:19;;;;;;;10.37;2.10;;;2.70;99.90;;;;;;5243144;28;20547;-51
2024/01/15 08:07:49;;;;;;;3.97;1.97;;;2.70;99.90;;;;;;5225488;28;20190;-50
2024/01/15 08:10:20;;;;;;;8.50;1.97;;;2.80;99.90;;;;;;5244950;28;20448;-51
2024/01/15 08:12:51;;;;;;;5.23;1.63;;;2.70;99.90;;;;;;5232545;28;20651;-50
2024/01/15 08:15:21;;;;;;;7.00;2.03;;;2.80;99.90;;;;;;5238906;28;20195;-50
2024/01/15 08:17:52;;;;;;;8.63;1.80;;;2.90;99.90;;;;;;5233564;28;20635;-50
2024/01/15 08:20:23;;;;;;;8.10;1.87;;;2.70;99.90;;;;;;5240920;28;20201;-51
2024/01/15 08:22:54;;;;;;;11.50;1.93;;;2.80;99.90;;;;;;5240228;28;20217;-50
2024/01/15 08:25:25;;;;;;;12.60;2.10;;;2.80;99.90;;;;;;5245799;28;20262;-49
2024/01/15 08:27:57;;;;;;;14.47;2.20;;;2.80;99.90;;;;;;5241477;28;20228;-50
2024/01/15 08:30:28;;;;;;;5.63;2.00;;;2.80;99.90;;;;;;5240917;28;20556;-50
2024/01/15 08:32:59;;;;;;;16.43;2.20;;;2.70;99.90;;;;;;5237678;28;21016;-50
2024/01/15 08:35:29;;;;;;;13.43;1.93;;;2.70;99.90;;;;;;5227538;28;20971;-50
2024/01/15 08:38:00;;;;;;;8.13;1.80;;;2.70;99.90;;;;;;5236507;28;20460;-49
2024/01/15 08:40:31;;;;;;;12.93;1.83;;;2.60;99.90;;;;;;5235761;28;20616;-50
2024/01/15 08:43:02;;;;;;;14.53;1.60;;;2.70;99.90;;;;;;5234405;28;20184;-52
2024/01/15 08:45:33;;;;;;;5.00;1.73;;;2.80;99.90;;;;;;5235089;28;20255;-50
2024/01/15 08:48:04;;;;;;;10.37;2.10;;;2.80;99.90;;;;;;5234107;28;20444;-49
2024/01/15 08:50:34;;;;;;;7.90;1.83;;;2.80;99.90;;;;;;5229110;28;20444;-49
2024/01/15 08:53:05;;;;;;;5.43;1.40;;;2.80;99.90;;;;;;5235838;28;20191;-51
2024/01/15 08:55:36;;;;;;;5.00;2.20;;;2.80;99.90;;;;;;5237021;28;20542;-50
2024/01/15 08:58:06;;;;;;;9.47;1.83;;;3.00;99.90;;;;;;5236841;28;20648;-50
2024/01/15 09:00:37;;;;;;;3.00;1.70;;;3.00;99.90;;;;;;5235532;28;20198;-50
2024/01/15 09:03:10;;;;;;;6.93;1.60;;;2.90;99.90;;;;;;5234105;28;20220;-49
2024/01/15 09:05:41;;;;;;;7.80;1.43;;;2.80;99.90;;;;;;5235008;28;20708;-50
2024/01/15 09:08:11;;;;;;;10.40;2.10;;;2.90;99.90;;;;;;5236151;28;20445;-51
2024/01/15 09:10:42;;;;;;;5.77;2.07;;;2.80;99.90;;;;;;5236572;28;20682;-49
2024/01/15 09:13:13;;;;;;;1.17;1.10;;;3.00;99.90;;;;;;5233762;28;20543;-49
2024/01/15 09:15:43;;;;;;;5.17;1.33;;;3.00;99.90;;;;;;5239008;28;20182;-49
2024/01/15 09:18:14;;;;;;;7.80;1.50;;;3.00;99.90;;;;;;5237106;28;20221;-52
2024/01/15 09:20:45;;;;;;;3.87;1.50;;;3.00;99.90;;;;;;5236762;28;20183;-51
2024/01/15 09:23:15;;;;;;;4.90;1.30;;;3.00;99.90;;;;;;5237826;28;20665;-51
2024/01/15 09:25:47;;;;;;;11.03;2.20;;;3.00;99.90;;;;;;5239373;28;20263;-50
2024/01/15 09:28:18;;;;;;;4.13;1.80;;;3.00;99.90;;;;;;5235950;28;20274;-50
2024/01/15 09:30:49;;;;;;;7.07;1.93;;;3.00;99.90;;;;;;5235855;28;20536;-50
2024/01/15 09:33:19;;;;;;;15.13;2.17;;;3.00;99.90;;;;;;5234866;28;20865;-51
2024/01/15 09:35:50;;;;;;;7.93;1.67;;;3.00;99.90;;;;;;5237465;28;20186;-50
2024/01/15 09:38:21;;;;;;;8.87;2.10;;;3.10;99.90;;;;;;5239014;28;20224;-51
2024/01/15 09:40:52;;;;;;;3.07;1.97;;;3.20;99.90;;;;;;5221509;28;20182;-52
2024/01/15 09:43:23;;;;;;;3.93;1.80;;;3.40;99.90;;;;;;5238475;28;20321;-50
2024/01/15 09:45:54;;;;;;;14.50;3.47;;;3.40;99.90;;;;;;5232769;28;20428;-49
2024/01/15 09:48:24;;;;;;;3.20;1.50;;;3.50;99.90;;;;;;5241085;28;20202;-48
2024/01/15 09:50:58;;;;;;;2.63;1.97;;;3.60;99.90;;;;;;5240779;28;20638;-49
2024/01/15 09:53:29;;;;;;;13.03;2.03;;;3.90;99.90;;;;;;5235933;28;20190;-51
2024/01/15 09:56:01;;;;;;;1.13;1.13;;;4.10;99.90;;;;;;5237224;28;20502;-50
2024/01/15 09:58:33;;;;;;;4.30;2.07;;;3.90;99.90;;;;;;5238166;28;20866;-51
2024/01/15 10:01:04;;;;;;;4.83;1.60;;;3.90;99.90;;;;;;5239554;28;20862;-48
2024/01/15 10:03:37;;;;;;;9.40;1.50;;;3.90;99.90;;;;;;5225850;28;20465;-49
2024/01/15 10:06:09;;;;;;;4.30;1.13;;;3.90;99.90;;;;;;5238641;28;20520;-49
2024/01/15 10:08:39;;;;;;;14.67;1.53;;;3.90;99.90;;;;;;5243279;28;20456;-50
2024/01/15 10:11:10;;;;;;;3.13;1.20;;;3.80;99.90;;;;;;5245893;28;20499;-49
2024/01/15 10:13:43;;;;;;;1.60;1.07;;;3.80;99.90;;;;;;5235837;28;20262;-49
2024/01/15 10:16:13;;;;;;;1.73;1.00;;;3.60;99.90;;;;;;5234867;28;20192;-48
2024/01/15 10:18:44;;;;;;;8.73;1.87;;;3.80;99.90;;;;;;5241544;28;20500;-47
2024/01/15 10:21:15;;;;;;;2.90;1.40;;;3.80;99.90;;;;;;5235120;28;20180;-48
2024/01/15 10:23:46;;;;;;;2.50;1.97;;;3.80;99.90;;;;;;5238378;28;20188;-50
2024/01/15 10:26:17;;;;;;;6.90;1.40;;;3.80;99.90;;;;;;5241922;28;20269;-50
2024/01/15 10:28:52;;;;;;;4.83;1.20;;;3.90;99.90;;;;;;5234232;28;20559;-49
2024/01/15 10:31:22;;;;;;;5.60;1.27;;;3.90;99.90;;;;;;5258898;28;20247;-47
2024/01/15 10:33:53;;;;;;;2.23;1.97;;;4.00;99.90;;;;;;5237934;28;20829;-48
2024/01/15 10:36:25;;;;;;;2.67;1.30;;;4.00;99.90;;;;;;5233955;28;20385;-47
2024/01/15 10:38:58;;;;;;;5.47;1.50;;;3.90;99.90;;;;;;5234405;28;20209;-47
2024/01/15 10:41:29;;;;;;;1.80;1.70;;;3.80;99.90;;;;;;5241156;28;20920;-49
2024/01/15 10:43:59;;;;;;;2.53;1.63;;;3.70;99.90;;;;;;5242874;28;20425;-48
2024/01/15 10:46:31;;;;;;;7.07;2.10;;;3.60;99.90;;;;;;5244880;28;20806;-51
2024/01/15 10:49:02;;;;;;;4.30;1.17;;;3.40;99.90;;;;;;5236459;28;20410;-47
2024/01/15 10:51:33;;;;;;;1.80;1.60;;;3.50;99.90;;;;;;5234634;28;20444;-47
2024/01/15 10:54:04;;;;;;;1.80;1.20;;;3.50;99.90;;;;;;5232016;28;20270;-50
2024/01/15 10:56:35;;;;;;;4.57;1.00;;;3.70;99.90;;;;;;5231876;28;20221;-50
2024/01/15 10:59:08;;;;;;;8.30;1.80;;;3.70;99.90;;;;;;5239737;28;20475;-49
2024/01/15 11:01:39;;;;;;;3.10;1.87;;;3.80;99.90;;;;;;5239026;28;20447;-48
2024/01/15 11:04:10;;;;;;;3.80;1.50;;;3.70;99.90;;;;;;5239803;28;20750;-50
2024/01/15 11:06:50;;;;;;;14.27;1.60;;;3.60;99.90;;;;;;5243296;28;20433;-48
2024/01/15 11:09:21;;;;;;;4.43;1.63;;;3.60;99.90;;;;;;5238881;28;20212;-51
2024/01/15 11:12:09;;;;;;;7.87;2.10;;;3.70;99.90;;;;;;5241246;28;20752;-49
2024/01/15 11:14:43;;;;;;;2.10;1.67;;;3.70;99.90;;;;;;5242500;28;20174;-48
2024/01/15 11:17:15;;;;;;;3.07;1.17;;;3.70;99.90;;;;;;5228813;28;20948;-52
2024/01/15 11:19:50;;;;;;;2.23;1.07;;;3.70;99.90;;;;;;5237612;28;20825;-48
2024/01/15 11:22:30;;;;;;;2.50;1.10;;;3.70;99.90;;;;;;5242112;28;20459;-50
2024/01/15 11:25:13;;;;;;;6.63;0.97;;;3.50;99.90;;;;;;5236234;28;20975;-50
2024/01/15 11:27:44;;;;;;;4.53;1.03;;;3.60;99.90;;;;;;5245019;28;20527;-49
2024/01/15 11:30:14;;;;;;;2.93;0.97;;;3.80;99.90;;;;;;5242874;28;20587;-49
2024/01/15 11:32:46;;;;;;;3.67;2.20;;;3.70;99.90;;;;;;5249375;28;20511;-51
2024/01/15 11:35:18;;;;;;;1.00;0.83;;;3.70;99.90;;;;;;5245263;28;20182;-53
2024/01/15 11:37:53;;;;;;;1.20;1.20;;;3.80;99.90;;;;;;5242782;28;20416;-47
2024/01/15 11:40:33;;;;;;;5.13;1.63;;;3.80;99.90;;;;;;5239770;28;20810;-48
2024/01/15 11:43:06;;;;;;;4.43;1.63;;;3.60;99.90;;;;;;5238555;28;20593;-48
2024/01/15 11:45:37;;;;;;;3.13;1.47;;;3.70;99.90;;;;;;5237601;28;20765;-50
2024/01/15 11:48:17;;;;;;;1.53;1.20;;;3.60;99.90;;;;;;5248221;28;20472;-50
2024/01/15 11:50:49;;;;;;;2.37;1.30;;;3.60;99.90;;;;;;5234049;28;20487;-49
2024/01/15 11:53:28;;;;;;;1.80;1.57;;;3.60;99.90;;;;;;5247022;28;20420;-51
2024/01/15 11:56:01;;;;;;;2.00;0.80;;;3.50;99.90;;;;;;5227073;28;20421;-48
2024/01/15 11:58:32;;;;;;;3.30;1.50;;;3.40;99.90;;;;;;5247339;28;20489;-49
2024/01/15 12:01:03;;;;;;;7.03;1.60;;;3.20;99.90;;;;;;5239221;28;20429;-52
2024/01/15 12:03:34;;;;;;;7.10;1.70;;;3.00;99.90;;;;;;5237834;28;20210;-50
2024/01/15 12:06:09;;;;;;;2.80;1.77;;;2.70;99.90;;;;;;5226443;28;20787;-50
2024/01/15 12:08:40;;;;;;;4.00;1.90;;;2.60;99.90;;;;;;5247890;28;20443;-49
2024/01/15 12:11:14;;;;;;;2.20;1.70;;;2.70;99.90;;;;;;5245739;28;20501;-56
2024/01/15 12:13:45;;;;;;;3.70;1.50;;;2.70;99.90;;;;;;5240177;28;20167;-51
2024/01/15 12:16:15;;;;;;;3.43;1.47;;;2.70;99.90;;;;;;5239088;28;20422;-50
2024/01/15 12:18:46;;;;;;;2.13;1.37;;;2.70;99.90;;;;;;5248531;28;20463;-52
2024/01/15 12:21:17;;;;;;;7.20;2.70;;;2.60;99.90;;;;;;5241687;28;20266;-50
2024/01/15 12:23:49;;;;;;;5.73;2.03;;;2.50;99.90;;;;;;5242161;28;20183;-53
2024/01/15 12:26:20;;;;;;;1.73;1.63;;;2.50;99.90;;;;;;5234877;28;20414;-51
2024/01/15 12:28:54;;;;;;;1.60;1.60;;;2.70;99.90;;;;;;5233803;28;20473;-51
2024/01/15 12:31:24;;;;;;;3.30;1.70;;;2.70;99.90;;;;;;5237175;28;20249;-51
2024/01/15 12:33:56;;;;;;;2.53;1.77;;;2.60;99.90;;;;;;5236460;28;20424;-50
2024/01/15 12:36:27;;;;;;;1.30;0.93;;;2.60;99.90;;;;;;5235285;28;20281;-49
2024/01/15 12:39:00;;;;;;;5.30;1.47;;;2.60;99.90;;;;;;5233954;28;20547;-52
2024/01/15 12:41:32;;;;;;;1.93;0.73;;;2.60;99.90;;;;;;5233362;28;20228;-51
2024/01/15 12:44:03;;;;;;;1.80;0.70;;;2.50;99.90;;;;;;5235290;28;20416;-50
2024/01/15 12:46:34;;;;;;;3.03;0.80;;;2.30;99.90;;;;;;5238422;28;20424;-51
2024/01/15 12:49:05;;;;;;;1.77;1.13;;;2.30;99.90;;;;;;5236599;28;20556;-52
2024/01/15 12:51:35;;;;;;;0.77;0.77;;;2.30;99.90;;;;;;5234533;28;20949;-51
2024/01/15 12:54:06;;;;;;;1.90;1.33;;;2.30;99.90;;;;;;5234071;28;20190;-51
2024/01/15 12:56:37;;;;;;;1.07;1.07;;;2.30;99.90;;;;;;5233645;28;20297;-51
2024/01/15 12:59:08;;;;;;;0.90;0.90;;;2.40;99.90;;;;;;5233860;28;20214;-52
2024/01/15 13:01:38;;;;;;;1.00;1.00;;;2.30;99.90;;;;;;5237591;28;20186;-51
2024/01/15 13:04:09;;;;;;;1.33;0.70;;;2.30;99.90;;;;;;5235364;28;20446;-50
2024/01/15 13:06:40;;;;;;;6.47;1.30;;;2.30;99.90;;;;;;5240862;28;20646;-51
2024/01/15 13:09:11;;;;;;;1.00;0.93;;;2.30;99.90;;;;;;5240314;28;20475;-52
2024/01/15 13:11:41;;;;;;;1.87;1.40;;;2.30;99.90;;;;;;5241817;28;20214;-52
2024/01/15 13:14:15;;;;;;;1.40;1.30;;;2.40;99.90;;;;;;5237479;28;20890;-51